sensor_id;sensor_type;location;lat;lon;timestamp;P1;durP1;ratioP1;P2;durP2;ratioP2
9819;SDS011;4949;48.482;9.206;2023-01-08T00:02:57;7.50;;;6.80;;
9819;SDS011;4949;48.482;9.206;2023-01-08T00:08:00;8.83;;;6.70;;
9819;SDS011;4949;48.482;9.206;2023-01-08T00:13:01;6.60;;;6.00;;
9819;SDS011;4949;48.482;9.206;2023-01-08T00:18:05;7.47;;;6.77;;
9819;SDS011;4949;48.482;9.206;2023-01-08T00:23:15;7.60;;;6.97;;
9819;SDS011;4949;48.482;9.206;2023-01-08T00:28:18;7.23;;;6.53;;
9819;SDS011;4949;48.482;9.206;2023-01-08T00:33:20;6.83;;;6.00;;
9819;SDS011;4949;48.482;9.206;2023-01-08T00:38:24;6.87;;;6.20;;
9819;SDS011;4949;48.482;9.206;2023-01-08T00:43:25;6.73;;;5.97;;
9819;SDS011;4949;48.482;9.206;2023-01-08T00:48:26;6.80;;;6.10;;
9819;SDS011;4949;48.482;9.206;2023-01-08T00:53:27;6.60;;;6.00;;
9819;SDS011;4949;48.482;9.206;2023-01-08T00:58:28;7.50;;;6.07;;
9819;SDS011;4949;48.482;9.206;2023-01-08T01:03:32;6.37;;;5.77;;
9819;SDS011;4949;48.482;9.206;2023-01-08T01:08:33;5.60;;;5.00;;
9819;SDS011;4949;48.482;9.206;2023-01-08T01:13:34;5.40;;;4.90;;
9819;SDS011;4949;48.482;9.206;2023-01-08T01:18:35;6.30;;;5.47;;
9819;SDS011;4949;48.482;9.206;2023-01-08T01:23:40;5.73;;;5.23;;
9819;SDS011;4949;48.482;9.206;2023-01-08T01:28:47;5.57;;;5.10;;
9819;SDS011;4949;48.482;9.206;2023-01-08T01:33:50;5.50;;;5.00;;
9819;SDS011;4949;48.482;9.206;2023-01-08T01:38:53;5.57;;;5.07;;
9819;SDS011;4949;48.482;9.206;2023-01-08T01:43:59;6.10;;;5.60;;
9819;SDS011;4949;48.482;9.206;2023-01-08T01:49:41;7.50;;;6.70;;
9819;SDS011;4949;48.482;9.206;2023-01-08T01:54:49;7.90;;;6.73;;
9819;SDS011;4949;48.482;9.206;2023-01-08T01:59:53;6.90;;;6.30;;
9819;SDS011;4949;48.482;9.206;2023-01-08T02:04:58;7.30;;;6.60;;
9819;SDS011;4949;48.482;9.206;2023-01-08T02:10:06;6.63;;;6.03;;
9819;SDS011;4949;48.482;9.206;2023-01-08T02:15:34;9.00;;;7.30;;
9819;SDS011;4949;48.482;9.206;2023-01-08T02:20:43;7.13;;;6.43;;
9819;SDS011;4949;48.482;9.206;2023-01-08T02:31:10;8.10;;;6.87;;
9819;SDS011;4949;48.482;9.206;2023-01-08T02:47:47;6.60;;;6.00;;
9819;SDS011;4949;48.482;9.206;2023-01-08T02:58:18;7.00;;;5.70;;
9819;SDS011;4949;48.482;9.206;2023-01-08T03:03:21;6.67;;;5.90;;
9819;SDS011;4949;48.482;9.206;2023-01-08T03:08:27;6.57;;;5.97;;
9819;SDS011;4949;48.482;9.206;2023-01-08T03:13:52;8.03;;;7.03;;
9819;SDS011;4949;48.482;9.206;2023-01-08T03:19:21;6.40;;;5.80;;
9819;SDS011;4949;48.482;9.206;2023-01-08T03:24:36;4.10;;;3.70;;
9819;SDS011;4949;48.482;9.206;2023-01-08T03:29:39;4.90;;;4.40;;
9819;SDS011;4949;48.482;9.206;2023-01-08T03:34:40;4.37;;;3.97;;
9819;SDS011;4949;48.482;9.206;2023-01-08T03:39:50;5.30;;;4.80;;
9819;SDS011;4949;48.482;9.206;2023-01-08T03:44:59;4.87;;;4.40;;
9819;SDS011;4949;48.482;9.206;2023-01-08T03:50:03;5.30;;;4.80;;
9819;SDS011;4949;48.482;9.206;2023-01-08T03:55:08;5.70;;;5.20;;
9819;SDS011;4949;48.482;9.206;2023-01-08T04:00:10;5.33;;;4.83;;
9819;SDS011;4949;48.482;9.206;2023-01-08T04:05:11;6.00;;;5.40;;
9819;SDS011;4949;48.482;9.206;2023-01-08T04:10:12;5.03;;;4.63;;
9819;SDS011;4949;48.482;9.206;2023-01-08T04:15:13;5.70;;;4.70;;
9819;SDS011;4949;48.482;9.206;2023-01-08T04:20:14;5.20;;;4.80;;
9819;SDS011;4949;48.482;9.206;2023-01-08T04:25:14;5.40;;;4.90;;
9819;SDS011;4949;48.482;9.206;2023-01-08T04:30:15;6.27;;;4.93;;
9819;SDS011;4949;48.482;9.206;2023-01-08T04:35:21;5.40;;;4.90;;
9819;SDS011;4949;48.482;9.206;2023-01-08T04:40:22;5.40;;;4.90;;
9819;SDS011;4949;48.482;9.206;2023-01-08T04:45:22;6.50;;;4.80;;
9819;SDS011;4949;48.482;9.206;2023-01-08T04:50:25;4.87;;;4.47;;
9819;SDS011;4949;48.482;9.206;2023-01-08T04:55:26;5.33;;;4.83;;
9819;SDS011;4949;48.482;9.206;2023-01-08T05:00:32;5.07;;;4.57;;
9819;SDS011;4949;48.482;9.206;2023-01-08T05:05:33;9.03;;;4.90;;
9819;SDS011;4949;48.482;9.206;2023-01-08T05:10:34;5.33;;;4.80;;
9819;SDS011;4949;48.482;9.206;2023-01-08T05:15:35;5.30;;;4.80;;
9819;SDS011;4949;48.482;9.206;2023-01-08T05:20:35;5.57;;;5.07;;
9819;SDS011;4949;48.482;9.206;2023-01-08T05:25:36;5.90;;;5.30;;
9819;SDS011;4949;48.482;9.206;2023-01-08T05:30:39;6.87;;;5.57;;
9819;SDS011;4949;48.482;9.206;2023-01-08T05:35:40;6.50;;;5.87;;
9819;SDS011;4949;48.482;9.206;2023-01-08T05:40:41;6.83;;;6.17;;
9819;SDS011;4949;48.482;9.206;2023-01-08T05:45:41;7.37;;;6.60;;
9819;SDS011;4949;48.482;9.206;2023-01-08T05:50:42;5.97;;;5.37;;
9819;SDS011;4949;48.482;9.206;2023-01-08T05:55:43;6.07;;;5.57;;
9819;SDS011;4949;48.482;9.206;2023-01-08T06:00:44;8.97;;;7.23;;
9819;SDS011;4949;48.482;9.206;2023-01-08T06:05:47;5.40;;;4.93;;
9819;SDS011;4949;48.482;9.206;2023-01-08T06:10:48;6.40;;;4.93;;
9819;SDS011;4949;48.482;9.206;2023-01-08T06:15:49;5.53;;;5.03;;
9819;SDS011;4949;48.482;9.206;2023-01-08T06:20:50;4.97;;;4.47;;
9819;SDS011;4949;48.482;9.206;2023-01-08T06:25:54;3.10;;;2.73;;
9819;SDS011;4949;48.482;9.206;2023-01-08T06:30:57;2.63;;;2.43;;
9819;SDS011;4949;48.482;9.206;2023-01-08T06:36:02;3.10;;;2.37;;
9819;SDS011;4949;48.482;9.206;2023-01-08T06:41:09;2.53;;;2.13;;
9819;SDS011;4949;48.482;9.206;2023-01-08T06:46:10;4.00;;;1.93;;
9819;SDS011;4949;48.482;9.206;2023-01-08T06:51:11;2.47;;;2.27;;
9819;SDS011;4949;48.482;9.206;2023-01-08T06:56:11;2.40;;;2.20;;
9819;SDS011;4949;48.482;9.206;2023-01-08T07:01:14;2.33;;;2.13;;
9819;SDS011;4949;48.482;9.206;2023-01-08T07:06:17;2.40;;;2.20;;
9819;SDS011;4949;48.482;9.206;2023-01-08T07:11:19;2.00;;;1.80;;
9819;SDS011;4949;48.482;9.206;2023-01-08T07:16:20;2.17;;;1.97;;
9819;SDS011;4949;48.482;9.206;2023-01-08T07:21:26;2.40;;;1.80;;
9819;SDS011;4949;48.482;9.206;2023-01-08T07:26:26;1.90;;;1.80;;
9819;SDS011;4949;48.482;9.206;2023-01-08T07:31:27;2.63;;;2.37;;
9819;SDS011;4949;48.482;9.206;2023-01-08T07:36:28;1.70;;;1.60;;
9819;SDS011;4949;48.482;9.206;2023-01-08T07:41:31;2.40;;;2.03;;
9819;SDS011;4949;48.482;9.206;2023-01-08T07:46:31;1.60;;;1.50;;
9819;SDS011;4949;48.482;9.206;2023-01-08T07:51:33;1.70;;;1.60;;
9819;SDS011;4949;48.482;9.206;2023-01-08T07:56:33;1.57;;;1.47;;
9819;SDS011;4949;48.482;9.206;2023-01-08T08:01:34;1.50;;;1.40;;
9819;SDS011;4949;48.482;9.206;2023-01-08T08:06:35;2.03;;;1.90;;
9819;SDS011;4949;48.482;9.206;2023-01-08T08:11:35;3.13;;;2.13;;
9819;SDS011;4949;48.482;9.206;2023-01-08T08:16:39;1.63;;;1.53;;
9819;SDS011;4949;48.482;9.206;2023-01-08T08:21:40;2.00;;;1.50;;
9819;SDS011;4949;48.482;9.206;2023-01-08T08:26:43;2.07;;;1.87;;
9819;SDS011;4949;48.482;9.206;2023-01-08T08:31:44;2.03;;;1.80;;
9819;SDS011;4949;48.482;9.206;2023-01-08T08:36:48;3.23;;;1.70;;
9819;SDS011;4949;48.482;9.206;2023-01-08T08:41:49;2.90;;;1.60;;
9819;SDS011;4949;48.482;9.206;2023-01-08T08:46:49;1.43;;;1.33;;
9819;SDS011;4949;48.482;9.206;2023-01-08T08:51:50;1.40;;;1.30;;
9819;SDS011;4949;48.482;9.206;2023-01-08T08:56:52;1.60;;;1.50;;
9819;SDS011;4949;48.482;9.206;2023-01-08T09:01:52;2.07;;;1.57;;
9819;SDS011;4949;48.482;9.206;2023-01-08T09:06:55;2.10;;;1.50;;
9819;SDS011;4949;48.482;9.206;2023-01-08T09:11:56;1.70;;;1.60;;
9819;SDS011;4949;48.482;9.206;2023-01-08T09:16:57;2.53;;;1.90;;
9819;SDS011;4949;48.482;9.206;2023-01-08T09:21:58;1.50;;;1.40;;
9819;SDS011;4949;48.482;9.206;2023-01-08T09:27:03;1.80;;;1.70;;
9819;SDS011;4949;48.482;9.206;2023-01-08T09:32:05;1.57;;;1.47;;
9819;SDS011;4949;48.482;9.206;2023-01-08T09:37:06;2.17;;;1.53;;
9819;SDS011;4949;48.482;9.206;2023-01-08T09:42:07;1.67;;;1.50;;
9819;SDS011;4949;48.482;9.206;2023-01-08T09:47:19;1.63;;;1.53;;
9819;SDS011;4949;48.482;9.206;2023-01-08T09:52:27;1.97;;;1.60;;
9819;SDS011;4949;48.482;9.206;2023-01-08T09:57:32;1.97;;;1.40;;
9819;SDS011;4949;48.482;9.206;2023-01-08T10:02:33;1.20;;;1.20;;
9819;SDS011;4949;48.482;9.206;2023-01-08T10:07:37;1.90;;;1.63;;
9819;SDS011;4949;48.482;9.206;2023-01-08T10:12:47;1.50;;;1.40;;
9819;SDS011;4949;48.482;9.206;2023-01-08T10:23:11;1.30;;;1.20;;
9819;SDS011;4949;48.482;9.206;2023-01-08T10:28:19;1.37;;;1.27;;
9819;SDS011;4949;48.482;9.206;2023-01-08T10:33:38;1.50;;;1.40;;
9819;SDS011;4949;48.482;9.206;2023-01-08T10:43:57;1.50;;;1.40;;
9819;SDS011;4949;48.482;9.206;2023-01-08T10:49:05;1.57;;;1.30;;
9819;SDS011;4949;48.482;9.206;2023-01-08T10:59:47;1.60;;;1.50;;
9819;SDS011;4949;48.482;9.206;2023-01-08T11:04:49;1.63;;;1.53;;
9819;SDS011;4949;48.482;9.206;2023-01-08T11:09:53;1.63;;;1.53;;
9819;SDS011;4949;48.482;9.206;2023-01-08T11:14:54;2.07;;;1.87;;
9819;SDS011;4949;48.482;9.206;2023-01-08T11:20:05;1.60;;;1.50;;
9819;SDS011;4949;48.482;9.206;2023-01-08T11:25:10;1.60;;;1.50;;
9819;SDS011;4949;48.482;9.206;2023-01-08T11:30:18;1.67;;;1.57;;
9819;SDS011;4949;48.482;9.206;2023-01-08T11:40:31;1.50;;;1.40;;
9819;SDS011;4949;48.482;9.206;2023-01-08T11:56:27;1.50;;;1.40;;
9819;SDS011;4949;48.482;9.206;2023-01-08T12:23:20;2.93;;;2.73;;
9819;SDS011;4949;48.482;9.206;2023-01-08T12:34:13;1.60;;;1.50;;
9819;SDS011;4949;48.482;9.206;2023-01-08T12:39:25;1.40;;;1.30;;
9819;SDS011;4949;48.482;9.206;2023-01-08T12:44:30;1.60;;;1.40;;
9819;SDS011;4949;48.482;9.206;2023-01-08T12:49:37;1.60;;;1.50;;
9819;SDS011;4949;48.482;9.206;2023-01-08T12:54:54;1.87;;;1.30;;
9819;SDS011;4949;48.482;9.206;2023-01-08T13:10:20;2.60;;;1.60;;
9819;SDS011;4949;48.482;9.206;2023-01-08T13:15:31;1.40;;;1.30;;
9819;SDS011;4949;48.482;9.206;2023-01-08T13:20:33;1.40;;;1.30;;
9819;SDS011;4949;48.482;9.206;2023-01-08T13:25:37;1.23;;;1.13;;
9819;SDS011;4949;48.482;9.206;2023-01-08T13:30:39;2.00;;;1.27;;
9819;SDS011;4949;48.482;9.206;2023-01-08T13:35:41;1.40;;;1.30;;
9819;SDS011;4949;48.482;9.206;2023-01-08T13:45:45;1.60;;;1.50;;
9819;SDS011;4949;48.482;9.206;2023-01-08T13:51:04;1.60;;;1.50;;
9819;SDS011;4949;48.482;9.206;2023-01-08T13:56:06;3.10;;;2.07;;
9819;SDS011;4949;48.482;9.206;2023-01-08T14:01:08;1.70;;;1.60;;
9819;SDS011;4949;48.482;9.206;2023-01-08T14:11:30;1.57;;;1.40;;
9819;SDS011;4949;48.482;9.206;2023-01-08T14:16:46;1.90;;;1.70;;
9819;SDS011;4949;48.482;9.206;2023-01-08T14:21:52;2.03;;;1.70;;
9819;SDS011;4949;48.482;9.206;2023-01-08T14:26:58;3.10;;;2.80;;
9819;SDS011;4949;48.482;9.206;2023-01-08T14:32:01;2.90;;;2.70;;
9819;SDS011;4949;48.482;9.206;2023-01-08T14:37:02;3.80;;;2.07;;
9819;SDS011;4949;48.482;9.206;2023-01-08T14:42:14;2.23;;;1.80;;
9819;SDS011;4949;48.482;9.206;2023-01-08T14:47:49;1.77;;;1.67;;
9819;SDS011;4949;48.482;9.206;2023-01-08T14:58:27;3.57;;;2.90;;
9819;SDS011;4949;48.482;9.206;2023-01-08T15:03:39;2.37;;;2.20;;
9819;SDS011;4949;48.482;9.206;2023-01-08T15:08:44;1.87;;;1.77;;
9819;SDS011;4949;48.482;9.206;2023-01-08T15:13:50;2.47;;;2.27;;
9819;SDS011;4949;48.482;9.206;2023-01-08T15:24:20;3.50;;;3.20;;
9819;SDS011;4949;48.482;9.206;2023-01-08T15:29:29;4.10;;;3.70;;
9819;SDS011;4949;48.482;9.206;2023-01-08T15:34:32;3.10;;;2.80;;
9819;SDS011;4949;48.482;9.206;2023-01-08T15:39:33;2.23;;;2.13;;
9819;SDS011;4949;48.482;9.206;2023-01-08T15:44:33;2.77;;;2.57;;
9819;SDS011;4949;48.482;9.206;2023-01-08T15:49:36;6.83;;;6.13;;
9819;SDS011;4949;48.482;9.206;2023-01-08T15:54:37;3.50;;;3.20;;
9819;SDS011;4949;48.482;9.206;2023-01-08T15:59:45;3.50;;;3.20;;
9819;SDS011;4949;48.482;9.206;2023-01-08T16:04:49;2.47;;;2.27;;
9819;SDS011;4949;48.482;9.206;2023-01-08T16:09:56;2.60;;;2.40;;
9819;SDS011;4949;48.482;9.206;2023-01-08T16:14:57;2.87;;;2.13;;
9819;SDS011;4949;48.482;9.206;2023-01-08T16:20:00;2.50;;;2.30;;
9819;SDS011;4949;48.482;9.206;2023-01-08T16:25:05;2.03;;;1.83;;
9819;SDS011;4949;48.482;9.206;2023-01-08T16:30:09;2.20;;;2.00;;
9819;SDS011;4949;48.482;9.206;2023-01-08T16:35:14;2.10;;;2.00;;
9819;SDS011;4949;48.482;9.206;2023-01-08T16:40:14;2.13;;;1.93;;
9819;SDS011;4949;48.482;9.206;2023-01-08T16:45:18;3.03;;;2.83;;
9819;SDS011;4949;48.482;9.206;2023-01-08T16:50:21;3.23;;;2.57;;
9819;SDS011;4949;48.482;9.206;2023-01-08T16:55:30;2.20;;;2.00;;
9819;SDS011;4949;48.482;9.206;2023-01-08T17:00:31;2.50;;;2.30;;
9819;SDS011;4949;48.482;9.206;2023-01-08T17:05:35;3.00;;;2.70;;
9819;SDS011;4949;48.482;9.206;2023-01-08T17:10:45;3.07;;;2.77;;
9819;SDS011;4949;48.482;9.206;2023-01-08T17:15:45;2.93;;;2.70;;
9819;SDS011;4949;48.482;9.206;2023-01-08T17:20:52;3.17;;;2.97;;
9819;SDS011;4949;48.482;9.206;2023-01-08T17:25:54;3.03;;;2.73;;
9819;SDS011;4949;48.482;9.206;2023-01-08T17:31:02;2.50;;;2.30;;
9819;SDS011;4949;48.482;9.206;2023-01-08T17:36:09;2.53;;;2.33;;
9819;SDS011;4949;48.482;9.206;2023-01-08T17:41:16;3.63;;;2.73;;
9819;SDS011;4949;48.482;9.206;2023-01-08T17:46:42;3.73;;;2.67;;
9819;SDS011;4949;48.482;9.206;2023-01-08T17:51:44;2.50;;;2.17;;
9819;SDS011;4949;48.482;9.206;2023-01-08T17:56:45;2.80;;;2.60;;
9819;SDS011;4949;48.482;9.206;2023-01-08T18:01:48;3.30;;;3.00;;
9819;SDS011;4949;48.482;9.206;2023-01-08T18:06:53;2.90;;;2.70;;
9819;SDS011;4949;48.482;9.206;2023-01-08T18:11:53;3.10;;;2.60;;
9819;SDS011;4949;48.482;9.206;2023-01-08T18:16:56;3.20;;;3.00;;
9819;SDS011;4949;48.482;9.206;2023-01-08T18:22:00;2.73;;;2.53;;
9819;SDS011;4949;48.482;9.206;2023-01-08T18:27:04;3.00;;;2.80;;
9819;SDS011;4949;48.482;9.206;2023-01-08T18:32:04;2.80;;;2.60;;
9819;SDS011;4949;48.482;9.206;2023-01-08T18:37:07;2.67;;;2.47;;
9819;SDS011;4949;48.482;9.206;2023-01-08T18:42:09;3.20;;;2.90;;
9819;SDS011;4949;48.482;9.206;2023-01-08T18:47:25;3.00;;;2.80;;
9819;SDS011;4949;48.482;9.206;2023-01-08T18:52:28;3.53;;;3.23;;
9819;SDS011;4949;48.482;9.206;2023-01-08T18:57:29;6.80;;;3.50;;
9819;SDS011;4949;48.482;9.206;2023-01-08T19:02:30;3.93;;;3.50;;
9819;SDS011;4949;48.482;9.206;2023-01-08T19:07:36;4.03;;;3.73;;
9819;SDS011;4949;48.482;9.206;2023-01-08T19:12:37;4.40;;;3.47;;
9819;SDS011;4949;48.482;9.206;2023-01-08T19:17:38;3.37;;;3.07;;
9819;SDS011;4949;48.482;9.206;2023-01-08T19:22:39;3.47;;;3.20;;
9819;SDS011;4949;48.482;9.206;2023-01-08T19:27:42;3.63;;;3.00;;
9819;SDS011;4949;48.482;9.206;2023-01-08T19:32:43;3.80;;;3.17;;
9819;SDS011;4949;48.482;9.206;2023-01-08T19:37:46;4.30;;;3.00;;
9819;SDS011;4949;48.482;9.206;2023-01-08T19:42:47;2.87;;;2.60;;
9819;SDS011;4949;48.482;9.206;2023-01-08T19:48:06;2.57;;;2.37;;
9819;SDS011;4949;48.482;9.206;2023-01-08T19:53:07;2.93;;;2.73;;
9819;SDS011;4949;48.482;9.206;2023-01-08T19:58:08;3.00;;;2.53;;
9819;SDS011;4949;48.482;9.206;2023-01-08T20:03:08;2.73;;;2.53;;
9819;SDS011;4949;48.482;9.206;2023-01-08T20:08:11;2.53;;;2.33;;
9819;SDS011;4949;48.482;9.206;2023-01-08T20:13:12;3.20;;;2.90;;
9819;SDS011;4949;48.482;9.206;2023-01-08T20:18:13;2.70;;;2.50;;
9819;SDS011;4949;48.482;9.206;2023-01-08T20:23:14;4.23;;;3.80;;
9819;SDS011;4949;48.482;9.206;2023-01-08T20:28:15;4.93;;;3.93;;
9819;SDS011;4949;48.482;9.206;2023-01-08T20:33:16;4.20;;;3.87;;
9819;SDS011;4949;48.482;9.206;2023-01-08T20:38:23;6.40;;;5.80;;
9819;SDS011;4949;48.482;9.206;2023-01-08T20:43:27;7.00;;;6.30;;
9819;SDS011;4949;48.482;9.206;2023-01-08T20:48:32;7.30;;;6.70;;
9819;SDS011;4949;48.482;9.206;2023-01-08T20:53:34;7.40;;;6.67;;
9819;SDS011;4949;48.482;9.206;2023-01-08T20:58:40;9.87;;;8.87;;
9819;SDS011;4949;48.482;9.206;2023-01-08T21:03:45;9.40;;;7.50;;
9819;SDS011;4949;48.482;9.206;2023-01-08T21:08:53;8.10;;;7.30;;
9819;SDS011;4949;48.482;9.206;2023-01-08T21:13:57;3.97;;;3.60;;
9819;SDS011;4949;48.482;9.206;2023-01-08T21:19:02;4.40;;;3.63;;
9819;SDS011;4949;48.482;9.206;2023-01-08T21:24:03;3.80;;;3.50;;
9819;SDS011;4949;48.482;9.206;2023-01-08T21:29:07;3.83;;;3.33;;
9819;SDS011;4949;48.482;9.206;2023-01-08T21:34:11;5.37;;;4.13;;
9819;SDS011;4949;48.482;9.206;2023-01-08T21:39:15;4.87;;;4.47;;
9819;SDS011;4949;48.482;9.206;2023-01-08T21:44:19;6.20;;;4.97;;
9819;SDS011;4949;48.482;9.206;2023-01-08T21:49:41;5.07;;;4.63;;
9819;SDS011;4949;48.482;9.206;2023-01-08T21:54:42;5.47;;;4.70;;
9819;SDS011;4949;48.482;9.206;2023-01-08T21:59:43;4.73;;;4.33;;
9819;SDS011;4949;48.482;9.206;2023-01-08T22:04:48;4.70;;;4.30;;
9819;SDS011;4949;48.482;9.206;2023-01-08T22:09:52;4.93;;;4.53;;
9819;SDS011;4949;48.482;9.206;2023-01-08T22:14:54;5.27;;;4.80;;
9819;SDS011;4949;48.482;9.206;2023-01-08T22:19:56;5.70;;;5.20;;
9819;SDS011;4949;48.482;9.206;2023-01-08T22:25:00;5.13;;;4.73;;
9819;SDS011;4949;48.482;9.206;2023-01-08T22:30:01;5.80;;;5.30;;
9819;SDS011;4949;48.482;9.206;2023-01-08T22:35:05;5.33;;;4.93;;
9819;SDS011;4949;48.482;9.206;2023-01-08T22:40:06;5.20;;;4.80;;
9819;SDS011;4949;48.482;9.206;2023-01-08T22:45:08;6.27;;;5.27;;
9819;SDS011;4949;48.482;9.206;2023-01-08T22:50:11;6.00;;;5.50;;
9819;SDS011;4949;48.482;9.206;2023-01-08T22:55:12;6.00;;;5.40;;
9819;SDS011;4949;48.482;9.206;2023-01-08T23:00:13;5.30;;;4.80;;
9819;SDS011;4949;48.482;9.206;2023-01-08T23:05:14;4.03;;;3.73;;
9819;SDS011;4949;48.482;9.206;2023-01-08T23:10:20;3.60;;;3.10;;
9819;SDS011;4949;48.482;9.206;2023-01-08T23:15:22;3.60;;;3.30;;
9819;SDS011;4949;48.482;9.206;2023-01-08T23:20:23;3.03;;;2.63;;
9819;SDS011;4949;48.482;9.206;2023-01-08T23:25:24;3.07;;;2.83;;
9819;SDS011;4949;48.482;9.206;2023-01-08T23:30:30;3.73;;;3.43;;
9819;SDS011;4949;48.482;9.206;2023-01-08T23:35:31;2.77;;;2.53;;
9819;SDS011;4949;48.482;9.206;2023-01-08T23:40:34;2.80;;;2.60;;
9819;SDS011;4949;48.482;9.206;2023-01-08T23:45:35;3.80;;;3.40;;
9819;SDS011;4949;48.482;9.206;2023-01-08T23:50:40;3.10;;;2.80;;
9819;SDS011;4949;48.482;9.206;2023-01-08T23:55:41;2.97;;;2.77;;
